Time;durP1;ratioP1;P1;durP2;ratioP2;P2;SDS_P1;SDS_P2;PMS_P1;PMS_P2;Temp;Humidity;BMP_temperature;BMP_pressure;BME280_temperature;BME280_humidity;BME280_pressure;Samples;Min_cycle;Max_cycle;Signal;HPM_P1;HPM_P2
2021/03/15 00:00:46;;;;;;;10.07;4.50;;;;;;;9.81;58.33;100920.88;4973891;28;108618;-71
2021/03/15 00:03:14;;;;;;;9.77;5.32;;;;;;;9.82;58.67;100914.66;4966386;28;108834;-70
2021/03/15 00:05:56;;;;;;;14.00;4.57;;;;;;;9.82;58.48;100925.25;4969017;28;124300;-70
2021/03/15 00:08:24;;;;;;;9.75;4.15;;;;;;;9.81;58.63;100920.88;4969627;28;125479;-71
2021/03/15 00:10:50;;;;;;;9.00;4.50;;;;;;;9.79;58.82;100914.78;4971966;28;109411;-71
2021/03/15 00:13:19;;;;;;;10.43;4.43;;;;;;;9.78;58.59;100910.44;4970357;28;109107;-71
2021/03/15 00:15:47;;;;;;;10.27;4.53;;;;;;;9.79;58.79;100908.63;4969925;28;123403;-71
2021/03/15 00:18:14;;;;;;;12.52;4.22;;;;;;;9.79;58.33;100908.63;4963200;28;124211;-71
2021/03/15 00:20:41;;;;;;;8.05;3.80;;;;;;;9.78;58.69;100902.50;4971911;28;108909;-71
2021/03/15 00:23:07;;;;;;;10.63;4.45;;;;;;;9.78;58.92;100897.22;4972331;28;108888;-72
2021/03/15 00:25:34;;;;;;;7.78;3.95;;;;;;;9.78;58.93;100891.91;4969824;28;124822;-71
2021/03/15 00:28:01;;;;;;;9.15;4.40;;;;;;;9.79;58.89;100893.63;4963407;28;123856;-71
2021/03/15 00:30:27;;;;;;;11.10;4.40;;;;;;;9.80;59.03;100890.06;4969735;28;108801;-71
2021/03/15 00:32:54;;;;;;;13.60;4.80;;;;;;;9.82;58.95;100892.66;4967586;28;108950;-71
2021/03/15 00:35:22;;;;;;;9.90;5.10;;;;;;;9.82;59.09;100893.50;4964187;28;123882;-71
2021/03/15 00:37:49;;;;;;;10.25;5.22;;;;;;;9.83;59.41;100886.41;4969866;28;124240;-71
2021/03/15 00:40:19;;;;;;;13.32;5.03;;;;;;;9.82;58.99;100880.28;4970205;28;109877;-71
2021/03/15 00:42:47;;;;;;;12.63;5.40;;;;;;;9.82;59.28;100877.63;4956561;28;108782;-71
2021/03/15 00:45:15;;;;;;;16.77;5.80;;;;;;;9.83;59.14;100884.66;4970146;28;123514;-73
2021/03/15 00:47:42;;;;;;;13.38;5.35;;;;;;;9.81;59.26;100875.91;4968141;28;123270;-71
2021/03/15 00:50:31;;;;;;;14.25;5.88;;;;;;;9.80;59.25;100874.19;4972824;28;109244;-71
2021/03/15 00:53:01;;;;;;;11.45;5.90;;;;;;;9.79;59.47;100872.47;4961624;28;108138;-71
2021/03/15 00:55:27;;;;;;;13.52;5.80;;;;;;;9.79;59.31;100866.31;4956718;28;123060;-71
2021/03/15 00:57:54;;;;;;;14.00;6.25;;;;;;;9.79;59.39;100867.16;4971526;28;124027;-71
2021/03/15 01:00:47;;;;;;;11.18;6.63;;;;;;;9.77;59.63;100868.16;4982538;22;108956;-70
2021/03/15 01:03:26;;;;;;;13.75;5.85;;;;;;;9.76;59.08;100862.03;5004497;28;109142;-70
2021/03/15 01:05:58;;;;;;;9.82;5.93;;;;;;;9.73;59.54;100862.13;4989611;28;123765;-71
2021/03/15 01:08:38;;;;;;;11.68;5.78;;;;;;;9.71;59.56;100859.56;4994817;28;122881;-69
2021/03/15 01:11:10;;;;;;;12.73;6.38;;;;;;;9.72;59.78;100865.72;4972858;28;108492;-69
2021/03/15 01:13:41;;;;;;;11.63;6.05;;;;;;;9.71;59.84;100866.63;4954111;28;111082;-71
2021/03/15 01:16:08;;;;;;;10.48;6.30;;;;;;;9.71;59.97;100864.00;4954174;28;123233;-69
2021/03/15 01:18:37;;;;;;;13.68;6.45;;;;;;;9.71;60.03;100853.41;4963497;28;123750;-70
2021/03/15 01:21:03;;;;;;;10.40;6.03;;;;;;;9.72;60.08;100863.09;4976373;28;109704;-70
2021/03/15 01:23:30;;;;;;;10.70;6.40;;;;;;;9.72;59.75;100863.09;4981241;28;109866;-70
2021/03/15 01:25:57;;;;;;;12.02;6.05;;;;;;;9.72;59.83;100855.16;4988760;28;123713;-71
2021/03/15 01:28:23;;;;;;;10.13;5.95;;;;;;;9.72;60.21;100855.16;4968721;28;123989;-70
2021/03/15 01:30:50;;;;;;;12.52;5.85;;;;;;;9.74;59.79;100858.59;4959026;28;110010;-70
2021/03/15 01:33:17;;;;;;;12.88;6.10;;;;;;;9.73;60.04;100856.84;4967399;28;109273;-70
2021/03/15 01:35:43;;;;;;;15.25;6.47;;;;;;;9.73;59.97;100851.56;4985890;28;123600;-70
2021/03/15 01:38:10;;;;;;;8.88;6.60;;;;;;;9.74;60.05;100837.44;4958528;28;123618;-70
2021/03/15 01:40:39;;;;;;;12.65;7.20;;;;;;;9.75;60.34;100833.84;4958104;28;109475;-70
2021/03/15 01:43:07;;;;;;;10.10;6.82;;;;;;;9.75;60.19;100833.84;4984808;28;108713;-71
2021/03/15 01:45:34;;;;;;;9.30;6.57;;;;;;;9.78;59.93;100827.59;4960500;28;124115;-70
2021/03/15 01:48:02;;;;;;;12.77;7.20;;;;;;;9.80;60.06;100826.59;4970467;28;122812;-70
2021/03/15 01:50:29;;;;;;;13.23;7.05;;;;;;;9.84;60.34;100827.31;4958738;28;108430;-70
2021/03/15 01:52:56;;;;;;;10.88;7.75;;;;;;;9.86;60.44;100821.03;4956522;28;109033;-71
2021/03/15 01:55:24;;;;;;;16.30;8.60;;;;;;;9.88;60.46;100824.47;4956016;28;124041;-70
2021/03/15 01:57:51;;;;;;;12.75;8.05;;;;;;;9.90;60.20;100825.25;4960281;28;123719;-70
2021/03/15 02:00:19;;;;;;;14.48;8.27;;;;;;;9.94;60.01;100823.34;4960098;28;110857;-71
2021/03/15 02:03:05;;;;;;;12.02;8.23;;;;;;;9.96;60.46;100831.22;4969496;28;108826;-70
2021/03/15 02:05:35;;;;;;;12.25;8.82;;;;;;;9.97;60.24;100827.66;4955655;28;124126;-70
2021/03/15 02:08:03;;;;;;;15.40;8.98;;;;;;;9.99;60.30;100831.09;4957073;28;123765;-70
2021/03/15 02:10:31;;;;;;;15.73;8.85;;;;;;;9.99;60.05;100828.47;4958946;28;108064;-70
2021/03/15 02:13:11;;;;;;;13.65;9.38;;;;;;;9.97;60.08;100823.22;4959192;28;108876;-70
2021/03/15 02:15:53;;;;;;;13.70;8.60;;;;;;;9.95;60.32;100814.50;4956778;28;124133;-70
2021/03/15 02:18:37;;;;;;;13.77;9.13;;;;;;;9.96;60.03;100825.94;4956741;28;122775;-70
2021/03/15 02:21:53;;;;;;;14.00;9.45;;;;;;;9.96;60.05;100823.28;4955943;28;110179;-70
2021/03/15 02:24:42;;;;;;;13.63;8.80;;;;;;;9.94;59.96;100824.22;4970659;28;110455;-70
2021/03/15 02:27:32;;;;;;;13.75;8.75;;;;;;;9.92;60.28;100825.19;4957667;28;124165;-70
2021/03/15 02:30:17;;;;;;;12.13;8.50;;;;;;;9.92;60.12;100826.03;4955056;28;124336;-70
2021/03/15 02:32:46;;;;;;;12.82;8.25;;;;;;;9.92;60.05;100815.47;4956175;28;109479;-70
2021/03/15 02:35:18;;;;;;;13.13;8.75;;;;;;;9.94;60.17;100829.50;4987863;28;108058;-70
2021/03/15 02:38:18;;;;;;;16.95;9.43;;;;;;;9.92;60.37;100820.75;4953388;28;123420;-71
2021/03/15 02:40:53;;;;;;;10.50;7.20;;;;;;;9.91;60.37;100819.06;4966938;28;122824;-70
2021/03/15 02:43:25;;;;;;;10.75;7.50;;;;;;;9.88;60.37;100824.47;4969236;28;108269;-70
2021/03/15 02:45:57;;;;;;;9.85;7.20;;;;;;;9.87;60.70;100816.59;4959507;28;109442;-69
2021/03/15 02:48:25;;;;;;;8.50;5.32;;;;;;;9.86;60.43;100815.75;4967052;28;124049;-70
2021/03/15 02:50:53;;;;;;;9.10;4.93;;;;;;;9.86;60.41;100822.81;4985123;28;124780;-71
2021/03/15 02:53:21;;;;;;;8.52;5.15;;;;;;;9.83;60.81;100815.00;4960400;28;109500;-70
2021/03/15 02:55:50;;;;;;;7.70;5.00;;;;;;;9.81;60.56;100823.00;4971368;28;107824;-70
2021/03/15 02:58:19;;;;;;;7.82;4.70;;;;;;;9.79;60.97;100814.28;4985692;28;123920;-70
2021/03/15 03:00:47;;;;;;;6.20;4.65;;;;;;;9.77;60.96;100816.13;4968370;28;123614;-68
2021/03/15 03:03:17;;;;;;;6.80;4.40;;;;;;;9.74;61.14;100821.56;4958425;28;109661;-70
2021/03/15 03:05:46;;;;;;;8.43;4.38;;;;;;;9.72;60.78;100818.13;4959014;28;109173;-70
2021/03/15 03:08:18;;;;;;;8.48;4.97;;;;;;;9.70;61.01;100814.66;4955374;28;125185;-70
2021/03/15 03:10:47;;;;;;;8.45;4.53;;;;;;;9.68;60.74;100821.78;4969917;28;124375;-69
2021/03/15 03:13:17;;;;;;;8.05;4.82;;;;;;;9.66;61.27;100813.94;4954497;28;110150;-70
2021/03/15 03:15:44;;;;;;;7.35;5.05;;;;;;;9.66;61.31;100819.25;4955588;28;109681;-69
2021/03/15 03:18:15;;;;;;;7.50;4.57;;;;;;;9.67;60.89;100820.09;4961541;28;124188;-69
2021/03/15 03:20:57;;;;;;;7.30;4.68;;;;;;;9.67;61.03;100817.44;4974713;28;123067;-70
2021/03/15 03:23:27;;;;;;;9.70;5.55;;;;;;;9.67;61.02;100825.38;4957476;28;108979;-70
2021/03/15 03:25:58;;;;;;;8.57;5.00;;;;;;;9.67;61.17;100835.97;4958386;28;108887;-70
2021/03/15 03:28:26;;;;;;;9.70;5.85;;;;;;;9.68;61.30;100827.09;4956975;28;123983;-70
2021/03/15 03:30:57;;;;;;;10.18;5.53;;;;;;;9.67;61.39;100830.66;4957826;28;123752;-70
2021/03/15 03:33:24;;;;;;;8.15;4.93;;;;;;;9.65;61.31;100837.81;4960204;28;109330;-70
2021/03/15 03:35:50;;;;;;;9.23;5.60;;;;;;;9.63;61.38;100844.94;4959538;28;108375;-70
2021/03/15 03:38:37;;;;;;;7.95;5.47;;;;;;;9.61;61.32;100849.44;4970883;28;123058;-70
2021/03/15 03:41:03;;;;;;;8.35;5.18;;;;;;;9.60;61.53;100855.63;4961222;28;123919;-70
2021/03/15 03:43:30;;;;;;;9.30;5.25;;;;;;;9.59;61.48;100860.06;4961271;28;109206;-70
2021/03/15 03:45:56;;;;;;;9.40;5.18;;;;;;;9.58;61.58;100857.50;4961153;28;108978;-69
2021/03/15 03:48:23;;;;;;;9.02;5.32;;;;;;;9.57;61.40;100867.22;4958357;28;124414;-69
2021/03/15 03:50:50;;;;;;;10.52;5.57;;;;;;;9.58;61.40;100873.34;4958483;28;124090;-70
2021/03/15 03:53:35;;;;;;;8.65;5.13;;;;;;;9.58;61.48;100873.34;4971314;28;109281;-69
2021/03/15 03:56:13;;;;;;;9.32;5.38;;;;;;;9.57;61.32;100882.19;4970826;28;108679;-70
2021/03/15 03:58:45;;;;;;;8.23;5.35;;;;;;;9.57;61.72;100887.47;4971620;28;123938;-70
2021/03/15 04:01:13;;;;;;;10.73;5.60;;;;;;;9.59;61.81;100885.63;4963598;28;124556;-70
2021/03/15 04:03:44;;;;;;;9.35;5.68;;;;;;;9.57;61.96;100893.66;4950047;28;109137;-70
2021/03/15 04:06:13;;;;;;;8.65;5.70;;;;;;;9.59;61.66;100896.22;4959140;28;110053;-69
2021/03/15 04:09:12;;;;;;;10.15;5.80;;;;;;;9.60;61.61;100892.66;4959082;28;122449;-69
2021/03/15 04:11:48;;;;;;;12.05;5.97;;;;;;;9.61;61.80;100894.38;4978853;28;123300;-69
2021/03/15 04:14:19;;;;;;;9.13;5.85;;;;;;;9.63;61.66;100897.84;4957337;28;108365;-70
2021/03/15 04:16:48;;;;;;;10.38;5.68;;;;;;;9.62;61.81;100901.38;4964132;28;108802;-69
2021/03/15 04:19:21;;;;;;;10.02;6.25;;;;;;;9.63;61.80;100903.13;4970895;28;123675;-69
2021/03/15 04:21:50;;;;;;;12.68;6.30;;;;;;;9.62;61.57;100896.09;4969193;28;123489;-70
2021/03/15 04:24:19;;;;;;;10.68;5.97;;;;;;;9.62;61.86;100909.31;4957191;28;110028;-69
2021/03/15 04:26:48;;;;;;;12.80;6.00;;;;;;;9.62;61.85;100914.59;4971808;28;107794;-69
2021/03/15 04:29:15;;;;;;;11.73;5.50;;;;;;;9.61;61.68;100915.53;4985663;28;123301;-70
2021/03/15 04:31:42;;;;;;;10.65;5.65;;;;;;;9.61;61.58;100926.13;4958510;28;124145;-70
2021/03/15 04:34:10;;;;;;;10.60;5.45;;;;;;;9.61;61.75;100926.13;4960444;28;108255;-70
2021/03/15 04:36:37;;;;;;;13.70;6.40;;;;;;;9.61;61.95;100926.97;4960711;28;108982;-70
2021/03/15 04:39:07;;;;;;;9.90;5.93;;;;;;;9.61;62.19;100931.41;4957789;28;125452;-69
2021/03/15 04:41:34;;;;;;;9.65;6.03;;;;;;;9.63;62.08;100929.56;4957672;28;124037;-70
2021/03/15 04:44:02;;;;;;;13.43;6.35;;;;;;;9.64;62.06;100936.56;4969549;28;108363;-69
2021/03/15 04:46:30;;;;;;;13.70;6.60;;;;;;;9.64;61.86;100941.84;4958846;28;108940;-70
2021/03/15 04:48:58;;;;;;;12.95;6.20;;;;;;;9.65;61.79;100946.22;4964685;28;124325;-69
2021/03/15 04:51:26;;;;;;;13.88;6.80;;;;;;;9.65;62.03;100959.44;4964492;28;123683;-70
2021/03/15 04:53:53;;;;;;;12.82;6.80;;;;;;;9.64;61.91;100963.00;4971932;28;109731;-70
2021/03/15 04:56:21;;;;;;;11.90;6.75;;;;;;;9.63;61.89;100956.84;4955965;28;109983;-71
2021/03/15 04:58:50;;;;;;;14.05;6.75;;;;;;;9.64;61.99;100963.00;4984388;28;122964;-70
2021/03/15 05:01:17;;;;;;;14.32;7.70;;;;;;;9.64;61.86;100965.66;4958554;28;123666;-70
2021/03/15 05:03:50;;;;;;;13.57;6.97;;;;;;;9.63;62.16;100966.59;4972643;28;109266;-69
2021/03/15 05:06:18;;;;;;;14.95;7.05;;;;;;;9.64;61.98;100968.28;4970024;28;108547;-70
2021/03/15 05:08:51;;;;;;;19.42;7.65;;;;;;;9.64;62.04;100973.56;4960570;28;124012;-70
2021/03/15 05:11:20;;;;;;;13.57;7.72;;;;;;;9.65;62.00;100975.31;4969889;28;122919;-69
2021/03/15 05:13:46;;;;;;;13.55;7.32;;;;;;;9.65;62.02;100980.59;4955681;28;109240;-70
2021/03/15 05:16:13;;;;;;;13.75;7.88;;;;;;;9.67;61.83;100984.06;4960998;28;108634;-70
2021/03/15 05:18:41;;;;;;;17.48;7.78;;;;;;;9.66;61.75;100982.31;4959508;28;124260;-70
2021/03/15 05:21:08;;;;;;;15.68;7.93;;;;;;;9.66;61.63;100990.25;4960680;28;123022;-70
2021/03/15 05:23:37;;;;;;;13.35;7.95;;;;;;;9.65;61.80;100996.47;4959274;28;108893;-70
2021/03/15 05:26:04;;;;;;;14.68;7.97;;;;;;;9.67;61.65;100999.91;4956542;28;108676;-70
2021/03/15 05:28:33;;;;;;;14.70;7.80;;;;;;;9.68;62.13;101001.63;4957001;28;123237;-70
2021/03/15 05:31:03;;;;;;;14.50;8.45;;;;;;;9.69;61.91;101003.38;4969335;28;123997;-70
2021/03/15 05:33:34;;;;;;;14.07;8.13;;;;;;;9.69;61.93;101008.66;4957689;28;109465;-71
2021/03/15 05:36:05;;;;;;;17.52;8.48;;;;;;;9.69;61.63;101008.66;4970439;28;108031;-70
2021/03/15 05:38:32;;;;;;;16.45;8.35;;;;;;;9.70;61.77;101010.34;4955950;28;123978;-71
2021/03/15 05:41:00;;;;;;;16.52;8.82;;;;;;;9.71;61.57;101012.09;4953973;28;124267;-70
2021/03/15 05:43:27;;;;;;;15.68;8.95;;;;;;;9.71;61.86;101017.38;4952334;28;109974;-70
2021/03/15 05:46:07;;;;;;;14.43;9.32;;;;;;;9.70;61.59;101015.66;4985114;28;110328;-70
2021/03/15 05:49:12;;;;;;;15.35;9.23;;;;;;;9.68;61.65;101022.78;4956963;28;123823;-70
2021/03/15 05:52:02;;;;;;;19.08;9.05;;;;;;;9.65;61.36;101029.06;4955385;28;124545;-70
2021/03/15 05:55:10;;;;;;;15.93;9.20;;;;;;;9.64;61.50;101034.41;4957380;28;109036;-70
2021/03/15 05:58:21;;;;;;;17.63;8.52;;;;;;;9.60;61.30;101030.16;4951795;28;108750;-70
2021/03/15 06:01:20;;;;;;;22.17;9.45;;;;;;;9.55;61.30;101033.84;4968419;28;124441;-70
2021/03/15 06:04:09;;;;;;;15.68;8.65;;;;;;;9.51;61.19;101048.09;4951243;28;124014;-70
2021/03/15 06:06:38;;;;;;;17.40;9.68;;;;;;;9.51;61.50;101057.78;4961550;28;109109;-70
2021/03/15 06:09:06;;;;;;;15.35;8.98;;;;;;;9.51;61.85;101050.75;4955598;28;108246;-70
2021/03/15 06:11:45;;;;;;;18.25;10.15;;;;;;;9.52;61.79;101054.25;4971372;28;123334;-71
2021/03/15 06:14:13;;;;;;;25.17;9.65;;;;;;;9.53;61.67;101062.13;4987123;28;123170;-71
2021/03/15 06:16:41;;;;;;;19.50;9.38;;;;;;;9.54;61.96;101058.53;4965284;28;108539;-71
2021/03/15 06:19:08;;;;;;;20.50;9.38;;;;;;;9.57;61.72;101059.34;4958044;28;109233;-70
2021/03/15 06:21:37;;;;;;;19.58;9.68;;;;;;;9.57;61.83;101056.69;4968464;28;123346;-70
2021/03/15 06:24:05;;;;;;;17.80;9.55;;;;;;;9.60;61.67;101056.59;4971267;28;123456;-70
2021/03/15 06:26:33;;;;;;;23.38;10.20;;;;;;;9.60;61.73;101056.59;4970432;28;109156;-70
2021/03/15 06:29:01;;;;;;;20.15;9.63;;;;;;;9.60;61.33;101064.53;4955559;28;110339;-71
2021/03/15 06:31:29;;;;;;;17.52;9.70;;;;;;;9.60;61.44;101056.59;4970629;28;122842;-70
2021/03/15 06:33:58;;;;;;;21.63;9.98;;;;;;;9.59;61.86;101065.44;4968719;28;122163;-71
2021/03/15 06:36:28;;;;;;;19.52;9.73;;;;;;;9.60;61.54;101067.19;4957193;28;110149;-70
2021/03/15 06:38:58;;;;;;;23.52;10.13;;;;;;;9.60;61.56;101068.03;4958761;28;109809;-71
2021/03/15 06:41:25;;;;;;;20.50;10.15;;;;;;;9.62;61.90;101073.25;4968380;28;124446;-70
2021/03/15 06:43:52;;;;;;;21.00;10.27;;;;;;;9.62;61.67;101071.47;4968940;28;123096;-71
2021/03/15 06:46:19;;;;;;;20.00;10.07;;;;;;;9.65;61.74;101086.38;4955601;28;110141;-71
2021/03/15 06:48:46;;;;;;;22.98;10.77;;;;;;;9.65;61.66;101094.31;4985806;28;110374;-71
2021/03/15 06:51:13;;;;;;;18.60;10.30;;;;;;;9.64;61.77;101089.94;4970355;28;123764;-70
2021/03/15 06:53:42;;;;;;;22.23;9.82;;;;;;;9.65;61.68;101094.31;4960438;28;123865;-71
2021/03/15 06:56:11;;;;;;;24.77;10.38;;;;;;;9.65;61.75;101100.47;4960557;28;108862;-71
2021/03/15 06:58:47;;;;;;;20.63;10.77;;;;;;;9.66;61.94;101098.66;4957738;28;110150;-71
2021/03/15 07:01:16;;;;;;;22.30;11.63;;;;;;;9.67;62.00;101100.41;4983289;22;124046;-72
2021/03/15 07:03:45;;;;;;;19.42;10.07;;;;;;;9.69;61.64;101103.88;4964723;28;124669;-72
2021/03/15 07:06:14;;;;;;;20.35;9.95;;;;;;;9.72;61.78;101111.69;4969856;28;109297;-72
2021/03/15 07:08:41;;;;;;;18.33;9.57;;;;;;;9.76;61.79;101113.31;4965700;28;108962;-72
2021/03/15 07:11:26;;;;;;;19.17;10.02;;;;;;;9.77;61.59;101117.66;4962070;28;123934;-72
2021/03/15 07:13:53;;;;;;;18.80;9.73;;;;;;;9.80;61.71;101122.84;4951530;28;122024;-72
2021/03/15 07:16:34;;;;;;;23.98;9.80;;;;;;;9.85;61.74;101123.53;4967001;28;110286;-72
2021/03/15 07:19:21;;;;;;;14.95;8.57;;;;;;;9.91;61.77;101131.22;4972301;28;107966;-72
2021/03/15 07:21:47;;;;;;;15.60;8.55;;;;;;;9.99;61.85;101138.03;4960627;28;123045;-72
2021/03/15 07:24:14;;;;;;;17.25;8.82;;;;;;;10.03;62.08;101140.47;4965818;28;123824;-72
2021/03/15 07:26:45;;;;;;;18.58;8.32;;;;;;;10.09;62.02;101149.97;4963109;28;110877;-72
2021/03/15 07:29:16;;;;;;;18.95;8.13;;;;;;;10.14;62.09;101153.31;4968145;28;110124;-72
2021/03/15 07:31:48;;;;;;;16.75;7.25;;;;;;;10.18;61.77;101154.91;4974088;28;122989;-72
2021/03/15 07:34:18;;;;;;;16.00;7.07;;;;;;;10.22;61.59;101151.22;4960779;28;124197;-72
2021/03/15 07:36:49;;;;;;;12.23;7.07;;;;;;;10.26;61.73;101158.13;4969918;28;109831;-72
2021/03/15 07:39:17;;;;;;;15.60;6.78;;;;;;;10.28;61.92;101158.94;4964838;28;108607;-72
2021/03/15 07:41:46;;;;;;;17.98;6.63;;;;;;;10.29;61.38;101163.31;4972523;28;123868;-72
2021/03/15 07:44:30;;;;;;;16.17;7.13;;;;;;;10.31;61.70;101171.22;4973878;28;123941;-72
2021/03/15 07:47:03;;;;;;;10.77;5.95;;;;;;;10.32;61.52;101181.75;4980374;28;108887;-74
2021/03/15 07:49:32;;;;;;;13.23;6.75;;;;;;;10.32;61.16;101187.06;4959723;28;108037;-72
2021/03/15 07:52:04;;;;;;;15.55;6.60;;;;;;;10.33;61.34;101191.41;4960389;28;123838;-72
2021/03/15 07:54:37;;;;;;;14.30;6.47;;;;;;;10.32;61.45;101189.72;4963135;28;123771;-72
2021/03/15 07:57:17;;;;;;;15.10;6.32;;;;;;;10.35;61.17;101185.22;4964722;28;109432;-72
2021/03/15 07:59:47;;;;;;;13.23;5.97;;;;;;;10.37;61.27;101196.59;4972095;28;108605;-72
2021/03/15 08:02:23;;;;;;;16.67;6.13;;;;;;;10.41;61.15;101198.22;4967414;28;123977;-72
2021/03/15 08:04:51;;;;;;;12.48;5.55;;;;;;;10.46;61.47;101201.56;4970240;28;123570;-72
2021/03/15 08:07:20;;;;;;;16.85;5.15;;;;;;;10.52;61.56;101211.91;4970906;28;114534;-72
2021/03/15 08:09:50;;;;;;;15.63;5.15;;;;;;;10.59;61.71;101207.25;4978194;28;113354;-72
2021/03/15 08:12:17;;;;;;;17.90;5.30;;;;;;;10.65;61.31;101207.84;4968780;28;122163;-73
2021/03/15 08:14:47;;;;;;;20.92;5.18;;;;;;;10.70;61.25;101200.59;4977422;28;124569;-72
2021/03/15 08:17:19;;;;;;;15.38;4.80;;;;;;;10.79;61.20;101209.94;4984711;28;117315;-72
2021/03/15 08:19:47;;;;;;;13.20;4.93;;;;;;;10.84;61.11;101204.47;4963759;28;114486;-72
2021/03/15 08:22:27;;;;;;;16.73;4.70;;;;;;;10.88;60.97;101208.72;4962568;28;123880;-72
2021/03/15 08:24:59;;;;;;;17.65;4.05;;;;;;;10.94;60.77;101211.09;4972870;28;122948;-72
2021/03/15 08:27:29;;;;;;;21.40;4.80;;;;;;;10.99;60.73;101222.38;4969036;28;113233;-71
2021/03/15 08:29:59;;;;;;;14.07;3.92;;;;;;;11.07;60.82;101224.72;4971639;28;113190;-71
2021/03/15 08:32:28;;;;;;;17.98;3.83;;;;;;;11.13;60.71;101228.91;4960567;28;125774;-71
2021/03/15 08:34:56;;;;;;;17.27;4.05;;;;;;;11.16;60.05;101223.50;4970147;28;124084;-71
2021/03/15 08:37:48;;;;;;;16.35;3.70;;;;;;;11.19;60.42;101223.34;4966129;28;114412;-71
2021/03/15 08:40:15;;;;;;;15.40;3.50;;;;;;;11.26;60.35;101230.13;4989649;28;113980;-71
2021/03/15 08:42:41;;;;;;;18.17;2.95;;;;;;;11.29;59.67;101220.25;4990060;28;124820;-71
2021/03/15 08:45:28;;;;;;;16.38;3.38;;;;;;;11.32;59.80;101239.59;4977971;28;123922;-71
2021/03/15 08:48:00;;;;;;;14.57;3.15;;;;;;;11.37;59.68;101227.03;4954492;28;114239;-71
2021/03/15 08:50:33;;;;;;;13.13;3.45;;;;;;;11.39;59.64;101226.03;4962710;28;114446;-70
2021/03/15 08:53:01;;;;;;;14.63;3.50;;;;;;;11.40;59.16;101230.41;4969959;28;123767;-70
2021/03/15 08:55:49;;;;;;;12.85;3.22;;;;;;;11.40;59.09;101227.75;4965833;28;123360;-70
2021/03/15 08:58:50;;;;;;;15.48;3.17;;;;;;;11.38;58.79;101229.63;4957351;28;114250;-70
2021/03/15 09:01:19;;;;;;;11.95;2.92;;;;;;;11.35;58.87;101261.56;4957297;28;113691;-70
2021/03/15 09:04:03;;;;;;;14.20;2.88;;;;;;;11.27;58.42;101274.28;4952774;28;122573;-70
2021/03/15 09:06:30;;;;;;;6.80;1.70;;;;;;;11.13;58.00;101255.41;4963351;28;124323;-71
2021/03/15 09:09:05;;;;;;;10.70;1.70;;;;;;;10.94;57.40;101257.94;4983281;28;115312;-71
2021/03/15 09:11:35;;;;;;;6.10;1.90;;;;;;;10.79;57.61;101257.63;4965177;28;115229;-71
2021/03/15 09:14:17;;;;;;;9.68;2.00;;;;;;;10.67;57.80;101258.97;4969689;28;124035;-71
2021/03/15 09:17:09;;;;;;;12.88;2.45;;;;;;;10.62;58.23;101266.22;4958022;28;124633;-71
2021/03/15 09:19:38;;;;;;;13.32;2.30;;;;;;;10.59;58.98;101266.34;4956675;28;113119;-70
2021/03/15 09:22:21;;;;;;;8.80;2.30;;;;;;;10.59;59.49;101266.34;4969204;28;114534;-70
2021/03/15 09:24:53;;;;;;;11.13;2.30;;;;;;;10.66;59.80;101262.56;4971035;28;123971;-70
2021/03/15 09:27:20;;;;;;;8.95;2.10;;;;;;;10.76;59.63;101267.50;4967217;28;123848;-71
2021/03/15 09:30:08;;;;;;;11.05;2.20;;;;;;;10.85;59.97;101277.72;4963551;28;113310;-71
2021/03/15 09:32:52;;;;;;;9.77;2.47;;;;;;;10.95;59.71;101268.50;4961743;28;114371;-70
2021/03/15 09:35:30;;;;;;;12.32;2.10;;;;;;;11.04;59.64;101283.19;4967122;28;123824;-71
2021/03/15 09:38:05;;;;;;;8.70;1.90;;;;;;;11.07;59.03;101283.88;4964926;28;124075;-70
2021/03/15 09:40:40;;;;;;;10.25;1.83;;;;;;;11.08;58.58;101288.28;4971749;28;114622;-70
2021/03/15 09:43:27;;;;;;;9.90;1.80;;;;;;;11.09;58.47;101287.38;4976420;28;114938;-71
2021/03/15 09:45:57;;;;;;;7.55;1.80;;;;;;;11.09;58.15;101292.69;4973881;28;123967;-70
2021/03/15 09:48:26;;;;;;;13.52;2.13;;;;;;;11.13;58.35;101296.03;4966591;28;123294;-71
2021/03/15 09:50:57;;;;;;;10.45;2.35;;;;;;;11.20;58.89;101288.72;4978829;28;114375;-71
2021/03/15 09:53:44;;;;;;;10.93;2.00;;;;;;;11.32;58.78;101288.22;4978907;28;113023;-70
2021/03/15 09:56:13;;;;;;;8.10;1.80;;;;;;;11.42;58.50;101289.56;4966700;28;122374;-71
2021/03/15 09:58:48;;;;;;;11.73;2.03;;;;;;;11.50;57.61;101298.06;4968530;28;123973;-71
2021/03/15 10:01:20;;;;;;;7.93;1.65;;;;;;;11.54;57.24;101297.94;4963157;28;116442;-71
2021/03/15 10:04:18;;;;;;;15.00;2.00;;;;;;;11.54;56.42;101297.94;4940958;28;115519;-70
2021/03/15 10:07:07;;;;;;;11.57;1.95;;;;;;;11.49;56.22;101301.66;4959766;28;124966;-70
2021/03/15 10:09:52;;;;;;;10.98;1.92;;;;;;;11.49;56.41;101296.34;4965934;28;124895;-70
2021/03/15 10:12:37;;;;;;;11.13;2.00;;;;;;;11.54;55.90;101308.53;4963494;28;114686;-69
2021/03/15 10:15:29;;;;;;;8.98;1.90;;;;;;;11.53;55.83;101312.09;4945635;28;114662;-70
2021/03/15 10:18:07;;;;;;;10.82;1.95;;;;;;;11.49;55.54;101317.56;4960562;28;124428;-70
2021/03/15 10:20:51;;;;;;;12.10;1.88;;;;;;;11.47;55.71;101308.81;4959307;28;122831;-72
2021/03/15 10:23:22;;;;;;;9.80;2.42;;;;;;;11.44;55.78;101308.94;4942916;28;113379;-69
2021/03/15 10:25:59;;;;;;;11.45;2.10;;;;;;;11.43;55.75;101312.53;4966974;28;113474;-72
2021/03/15 10:28:32;;;;;;;10.63;1.85;;;;;;;11.45;55.98;101313.31;4945178;28;123228;-70
2021/03/15 10:31:22;;;;;;;9.32;1.73;;;;;;;11.55;56.05;101310.28;4967583;28;122958;-70
2021/03/15 10:33:50;;;;;;;8.80;1.98;;;;;;;11.63;56.12;101308.16;4964837;28;113876;-70
2021/03/15 10:36:21;;;;;;;8.45;1.83;;;;;;;11.72;55.87;101318.41;4964639;28;113744;-70
2021/03/15 10:39:04;;;;;;;10.05;1.88;;;;;;;11.80;55.84;101310.97;4960922;28;123752;-69
2021/03/15 10:41:31;;;;;;;5.05;1.38;;;;;;;11.87;55.71;101312.44;4963591;28;123632;-70
2021/03/15 10:44:19;;;;;;;8.43;2.00;;;;;;;11.97;55.30;101312.06;4963641;28;113828;-70
2021/03/15 10:46:52;;;;;;;8.27;1.80;;;;;;;12.04;55.31;101313.53;4954064;28;113752;-70
2021/03/15 10:49:25;;;;;;;8.40;1.73;;;;;;;12.08;54.66;101312.47;4951462;28;123464;-70
2021/03/15 10:51:56;;;;;;;10.23;1.75;;;;;;;12.11;54.65;101309.69;4965821;28;123627;-70
2021/03/15 10:54:38;;;;;;;8.82;1.60;;;;;;;12.15;53.97;101321.00;4966565;28;114644;-69
2021/03/15 10:57:22;;;;;;;5.63;1.10;;;;;;;12.18;53.64;101318.22;4968230;28;114756;-70
2021/03/15 10:59:56;;;;;;;7.35;1.38;;;;;;;12.22;53.66;101328.66;4962337;28;123872;-69
2021/03/15 11:02:26;;;;;;;8.90;1.50;;;;;;;12.27;53.10;101315.16;4963312;28;124798;-69
2021/03/15 11:05:00;;;;;;;8.00;1.38;;;;;;;12.31;53.18;101316.75;4958304;28;114427;-69
2021/03/15 11:07:37;;;;;;;8.07;1.50;;;;;;;12.39;53.29;101319.91;4951256;28;113065;-69
2021/03/15 11:10:18;;;;;;;9.02;1.73;;;;;;;12.45;53.00;101318.78;4964839;28;123025;-70
2021/03/15 11:12:55;;;;;;;6.90;1.40;;;;;;;12.51;53.04;101323.81;4961937;28;124183;-69
2021/03/15 11:15:33;;;;;;;11.05;2.35;;;;;;;12.57;52.58;101339.47;4953534;28;113427;-69
2021/03/15 11:18:20;;;;;;;8.32;1.83;;;;;;;12.59;51.90;101332.31;4968067;28;113168;-70
2021/03/15 11:20:55;;;;;;;8.00;1.58;;;;;;;12.56;51.67;101337.75;4963895;28;123159;-70
2021/03/15 11:23:33;;;;;;;11.15;1.88;;;;;;;12.49;51.35;101357.56;4946036;28;125183;-70
2021/03/15 11:26:13;;;;;;;7.88;1.65;;;;;;;12.45;51.41;101345.34;4963568;28;114116;-71
2021/03/15 11:28:42;;;;;;;11.68;1.98;;;;;;;12.42;51.63;101341.03;4973323;28;113985;-71
2021/03/15 11:31:16;;;;;;;14.48;2.05;;;;;;;12.41;51.41;101343.75;4978511;28;123680;-71
2021/03/15 11:34:16;;;;;;;9.00;1.88;;;;;;;12.38;51.54;101359.84;4964531;28;123032;-71
2021/03/15 11:36:48;;;;;;;9.32;2.00;;;;;;;12.36;51.43;101361.72;4975381;28;113015;-70
2021/03/15 11:39:24;;;;;;;11.05;2.10;;;;;;;12.31;51.37;101363.69;4965425;28;113102;-70
2021/03/15 11:42:00;;;;;;;12.32;1.98;;;;;;;12.26;51.69;101364.78;4969302;28;123487;-69
2021/03/15 11:44:31;;;;;;;11.27;2.08;;;;;;;12.23;51.69;101354.28;4968825;28;123445;-70